createdAt,value
2018-12-30T00:01:02.832Z,99.90
2018-12-30T00:03:40.917Z,99.90
2018-12-30T00:06:28.518Z,99.90
2018-12-30T00:09:17.108Z,99.90
2018-12-30T00:11:49.869Z,99.90
2018-12-30T00:14:40.125Z,99.90
2018-12-30T00:17:10.129Z,99.90
2018-12-30T00:19:42.573Z,99.90
2018-12-30T00:22:11.888Z,99.90
2018-12-30T00:24:42.088Z,99.90
2018-12-30T00:27:12.312Z,99.90
2018-12-30T00:29:44.412Z,99.90
2018-12-30T00:32:14.576Z,99.90
2018-12-30T00:34:44.853Z,99.90
2018-12-30T00:37:15.063Z,99.90
2018-12-30T00:39:46.365Z,99.90
2018-12-30T00:42:16.403Z,99.90
2018-12-30T00:44:46.652Z,99.90
2018-12-30T00:47:16.924Z,99.90
2018-12-30T00:49:48.154Z,99.90
2018-12-30T00:52:18.281Z,99.90
2018-12-30T00:54:48.349Z,99.90
2018-12-30T00:57:18.436Z,99.90
2018-12-30T00:59:48.765Z,99.90
2018-12-30T01:02:18.958Z,99.90
2018-12-30T01:04:49.205Z,99.90
2018-12-30T01:07:19.640Z,99.90
2018-12-30T01:09:49.806Z,99.90
2018-12-30T01:12:19.961Z,99.90
2018-12-30T01:14:51.406Z,99.90
2018-12-30T01:17:21.623Z,99.90
2018-12-30T01:19:51.884Z,99.90
2018-12-30T01:22:22.025Z,99.90
2018-12-30T01:24:52.311Z,99.90
2018-12-30T01:27:22.668Z,99.90
2018-12-30T01:29:52.956Z,99.90
2018-12-30T01:32:23.124Z,99.90
2018-12-30T01:34:53.535Z,99.90
2018-12-30T01:37:23.690Z,99.90
2018-12-30T01:39:54.615Z,99.90
2018-12-30T01:42:24.850Z,99.90
2018-12-30T01:44:55.043Z,99.90
2018-12-30T01:47:25.352Z,99.90
2018-12-30T01:49:56.200Z,99.90
2018-12-30T01:52:26.363Z,99.90
2018-12-30T01:54:56.609Z,99.90
2018-12-30T01:57:26.985Z,99.90
2018-12-30T01:59:57.417Z,99.90
2018-12-30T02:02:27.544Z,99.90
2018-12-30T02:04:57.726Z,99.90
2018-12-30T02:07:28.089Z,99.90
2018-12-30T02:09:58.207Z,99.90
2018-12-30T02:12:28.567Z,99.90
2018-12-30T02:14:58.645Z,99.90
2018-12-30T02:17:29.115Z,99.90
2018-12-30T02:19:59.253Z,99.90
2018-12-30T02:22:29.284Z,99.90
2018-12-30T02:24:59.566Z,99.90
2018-12-30T02:27:30.328Z,99.90
2018-12-30T02:30:00.485Z,99.90
2018-12-30T02:32:30.808Z,99.90
2018-12-30T02:35:01.107Z,99.90
2018-12-30T02:37:32.314Z,99.90
2018-12-30T02:40:02.475Z,99.90
2018-12-30T02:42:32.859Z,99.90
2018-12-30T02:45:03.107Z,99.90
2018-12-30T02:47:33.710Z,99.90
2018-12-30T02:50:04.139Z,99.90
2018-12-30T02:52:34.386Z,99.90
2018-12-30T02:55:05.045Z,99.90
2018-12-30T02:57:35.525Z,99.90
2018-12-30T03:00:07.589Z,99.90
2018-12-30T03:02:37.936Z,99.90
2018-12-30T03:05:08.697Z,99.90
2018-12-30T03:07:39.686Z,99.90
2018-12-30T03:10:09.854Z,99.90
2018-12-30T03:12:40.228Z,99.90
2018-12-30T03:15:10.469Z,99.90
2018-12-30T03:17:40.976Z,99.90
2018-12-30T03:20:11.117Z,99.90
2018-12-30T03:22:41.247Z,99.90
2018-12-30T03:25:11.651Z,99.90
2018-12-30T03:27:41.892Z,99.90
2018-12-30T03:30:11.903Z,99.90
2018-12-30T03:32:43.135Z,99.90
2018-12-30T03:35:13.251Z,99.90
2018-12-30T03:37:43.454Z,99.90
2018-12-30T03:40:13.564Z,99.90
2018-12-30T03:42:43.712Z,99.90
2018-12-30T03:45:13.822Z,99.90
2018-12-30T03:47:44.060Z,99.90
2018-12-30T03:50:14.231Z,99.90
2018-12-30T03:52:44.385Z,99.90
2018-12-30T03:55:14.388Z,99.90
2018-12-30T03:57:44.447Z,99.90
2018-12-30T04:00:14.435Z,99.90
2018-12-30T04:02:44.509Z,99.90
2018-12-30T04:05:14.729Z,99.90
2018-12-30T04:07:44.770Z,99.90
2018-12-30T04:10:14.817Z,99.90
2018-12-30T04:12:44.825Z,99.90
2018-12-30T04:15:15.018Z,99.90
2018-12-30T04:17:45.019Z,99.90
2018-12-30T04:20:15.419Z,99.90
2018-12-30T04:22:45.414Z,99.90
2018-12-30T04:25:15.465Z,99.90
2018-12-30T04:27:45.462Z,99.90
2018-12-30T04:30:15.640Z,99.90
2018-12-30T04:32:45.641Z,99.90
2018-12-30T04:35:15.834Z,99.90
2018-12-30T04:37:45.818Z,99.90
2018-12-30T04:40:15.898Z,99.90
2018-12-30T04:42:45.956Z,99.90
2018-12-30T04:45:16.073Z,99.90
2018-12-30T04:47:46.402Z,99.90
2018-12-30T04:50:18.458Z,99.90
2018-12-30T04:52:48.564Z,99.90
2018-12-30T04:55:18.787Z,99.90
2018-12-30T04:57:48.932Z,99.90
2018-12-30T05:00:19.147Z,99.90
2018-12-30T05:02:49.266Z,99.90
2018-12-30T05:05:19.467Z,99.90
2018-12-30T05:07:49.682Z,99.90
2018-12-30T05:10:19.719Z,99.90
2018-12-30T05:12:49.910Z,99.90
2018-12-30T05:15:20.335Z,99.90
2018-12-30T05:17:50.483Z,99.90
2018-12-30T05:20:20.683Z,99.90
2018-12-30T05:22:52.450Z,99.90
2018-12-30T05:25:22.704Z,99.90
2018-12-30T05:27:52.971Z,99.90
2018-12-30T05:30:23.032Z,99.90
2018-12-30T05:32:54.547Z,99.90
2018-12-30T05:35:24.724Z,99.90
2018-12-30T05:37:54.952Z,99.90
2018-12-30T05:40:25.008Z,99.90
2018-12-30T05:42:56.460Z,99.90
2018-12-30T05:45:26.404Z,99.90
2018-12-30T05:47:58.439Z,99.90
2018-12-30T05:50:28.501Z,99.90
2018-12-30T05:52:58.601Z,99.90
2018-12-30T05:55:28.593Z,99.90
2018-12-30T05:57:58.643Z,99.90
2018-12-30T06:00:28.684Z,99.90
2018-12-30T06:03:00.469Z,99.90
2018-12-30T06:05:30.453Z,99.90
2018-12-30T06:08:00.772Z,99.90
2018-12-30T06:10:30.769Z,99.90
2018-12-30T06:13:01.902Z,99.90
2018-12-30T06:15:32.000Z,99.90
2018-12-30T06:18:03.393Z,99.90
2018-12-30T06:20:33.433Z,99.90
2018-12-30T06:23:03.585Z,99.90
2018-12-30T06:25:33.816Z,99.90
2018-12-30T06:28:04.223Z,99.90
2018-12-30T06:30:34.257Z,99.90
2018-12-30T06:33:04.540Z,99.90
2018-12-30T06:35:34.584Z,99.90
2018-12-30T06:38:04.826Z,99.90
2018-12-30T06:40:35.111Z,99.90
2018-12-30T06:43:05.759Z,99.90
2018-12-30T06:45:35.875Z,99.90
2018-12-30T06:48:05.911Z,99.90
2018-12-30T06:50:36.143Z,99.90
2018-12-30T06:53:06.263Z,99.90
2018-12-30T06:55:36.521Z,99.90
2018-12-30T06:58:06.655Z,99.90
2018-12-30T07:00:36.888Z,99.90
2018-12-30T07:03:07.164Z,99.90
2018-12-30T07:05:37.383Z,99.90
2018-12-30T07:08:07.617Z,99.90
2018-12-30T07:10:37.840Z,99.90
2018-12-30T07:13:07.835Z,99.90
2018-12-30T07:15:37.976Z,99.90
2018-12-30T07:18:08.086Z,99.90
2018-12-30T07:20:38.202Z,99.90
2018-12-30T07:23:08.314Z,99.90
2018-12-30T07:25:38.515Z,99.90
2018-12-30T07:28:08.769Z,99.90
2018-12-30T07:30:38.936Z,99.90
2018-12-30T07:33:09.056Z,99.90
2018-12-30T07:35:39.173Z,99.90
2018-12-30T07:38:09.350Z,99.90
2018-12-30T07:40:39.575Z,99.90
2018-12-30T07:43:09.695Z,99.90
2018-12-30T07:45:39.935Z,99.90
2018-12-30T07:48:09.936Z,99.90
2018-12-30T07:50:40.215Z,99.90
2018-12-30T07:53:13.887Z,99.90
2018-12-30T07:55:54.016Z,99.90
2018-12-30T07:58:24.134Z,99.90
2018-12-30T08:00:54.218Z,99.90
2018-12-30T08:03:24.314Z,99.90
2018-12-30T08:05:54.429Z,99.90
2018-12-30T08:08:24.616Z,99.90
2018-12-30T08:10:55.091Z,99.90
2018-12-30T08:13:26.597Z,99.90
2018-12-30T08:15:56.810Z,99.90
2018-12-30T08:18:28.570Z,99.90
2018-12-30T08:20:58.682Z,99.90
2018-12-30T08:23:28.766Z,99.90
2018-12-30T08:25:58.935Z,99.90
2018-12-30T08:28:28.988Z,99.90
2018-12-30T08:30:59.100Z,99.90
2018-12-30T08:33:29.266Z,99.90
2018-12-30T08:35:59.441Z,99.90
2018-12-30T08:38:30.031Z,99.90
2018-12-30T08:41:00.152Z,99.90
2018-12-30T08:43:30.231Z,99.90
2018-12-30T08:46:00.712Z,99.90
2018-12-30T08:48:30.914Z,99.90
2018-12-30T08:51:02.730Z,99.90
2018-12-30T08:53:33.305Z,99.90
2018-12-30T08:56:03.751Z,99.90
2018-12-30T08:58:34.158Z,99.90
2018-12-30T09:01:04.324Z,99.80
2018-12-30T09:03:34.502Z,99.70
2018-12-30T09:06:04.494Z,99.80
2018-12-30T09:08:34.635Z,99.80
2018-12-30T09:11:05.663Z,99.50
2018-12-30T09:13:36.683Z,99.20
2018-12-30T09:16:06.711Z,99.20
2018-12-30T09:18:36.922Z,99.30
2018-12-30T09:21:06.900Z,99.20
2018-12-30T09:23:37.720Z,99.20
2018-12-30T09:26:07.914Z,99.30
2018-12-30T09:28:38.462Z,99.50
2018-12-30T09:31:08.611Z,99.00
2018-12-30T09:33:38.702Z,98.70
2018-12-30T09:36:09.119Z,98.90
2018-12-30T09:38:39.347Z,98.90
2018-12-30T09:41:09.383Z,98.60
2018-12-30T09:43:39.456Z,98.90
2018-12-30T09:46:09.632Z,98.80
2018-12-30T09:48:39.816Z,98.20
2018-12-30T09:51:10.025Z,97.80
2018-12-30T09:53:45.071Z,98.00
2018-12-30T09:56:12.014Z,98.20
2018-12-30T09:58:42.034Z,98.20
2018-12-30T10:01:11.983Z,97.30
2018-12-30T10:03:42.242Z,97.50
2018-12-30T10:06:12.331Z,97.40
2018-12-30T10:08:42.627Z,97.40
2018-12-30T10:11:12.863Z,97.30
2018-12-30T10:13:42.883Z,97.40
2018-12-30T10:16:12.885Z,97.60
2018-12-30T10:18:44.609Z,97.40
2018-12-30T10:21:14.625Z,97.10
2018-12-30T10:23:52.962Z,97.50
2018-12-30T10:26:18.724Z,97.40
2018-12-30T10:28:48.911Z,97.40
2018-12-30T10:31:19.007Z,97.60
2018-12-30T10:33:49.213Z,97.60
2018-12-30T10:36:19.464Z,97.80
2018-12-30T10:38:49.692Z,97.40
2018-12-30T10:41:19.866Z,97.70
2018-12-30T10:43:49.956Z,98.00
2018-12-30T10:46:20.038Z,98.10
2018-12-30T10:48:50.371Z,97.90
2018-12-30T10:51:20.691Z,98.10
2018-12-30T10:53:51.163Z,98.00
2018-12-30T10:56:21.316Z,97.90
2018-12-30T10:58:51.499Z,98.00
2018-12-30T11:01:21.850Z,98.00
2018-12-30T11:03:55.032Z,97.80
2018-12-30T11:06:25.012Z,97.80
2018-12-30T11:08:55.455Z,97.90
2018-12-30T11:11:25.590Z,97.70
2018-12-30T11:13:58.592Z,97.50
2018-12-30T11:16:28.736Z,97.90
2018-12-30T11:18:58.961Z,98.00
2018-12-30T11:21:29.146Z,98.10
2018-12-30T11:24:08.330Z,98.20
2018-12-30T11:26:32.592Z,98.20
2018-12-30T11:29:02.880Z,98.20
2018-12-30T11:31:32.938Z,98.30
2018-12-30T11:34:04.617Z,98.40
2018-12-30T11:36:34.853Z,97.80
2018-12-30T11:39:06.727Z,98.20
2018-12-30T11:41:36.897Z,98.40
2018-12-30T11:44:07.179Z,98.10
2018-12-30T11:46:37.369Z,98.40
2018-12-30T11:49:08.979Z,98.70
2018-12-30T11:51:39.113Z,98.80
2018-12-30T11:54:16.428Z,99.00
2018-12-30T11:56:43.161Z,98.60
2018-12-30T11:59:13.374Z,98.50
2018-12-30T12:01:43.912Z,98.80
2018-12-30T12:04:17.064Z,99.10
2018-12-30T12:06:47.231Z,98.90
2018-12-30T12:09:17.476Z,99.00
2018-12-30T12:11:48.743Z,98.90
2018-12-30T12:14:20.504Z,99.10
2018-12-30T12:16:50.733Z,99.20
2018-12-30T12:19:21.091Z,99.50
2018-12-30T12:21:51.204Z,99.60
2018-12-30T12:24:24.532Z,99.90
2018-12-30T12:26:53.891Z,99.10
2018-12-30T12:29:24.004Z,99.20
2018-12-30T12:31:55.056Z,99.50
2018-12-30T12:34:25.750Z,99.70
2018-12-30T12:36:56.220Z,99.80
2018-12-30T12:39:26.631Z,99.90
2018-12-30T12:41:56.718Z,99.90
2018-12-30T12:44:29.959Z,99.80
2018-12-30T12:47:00.099Z,99.60
2018-12-30T12:49:30.291Z,99.70
2018-12-30T12:52:00.405Z,99.70
2018-12-30T12:54:32.253Z,99.70
2018-12-30T12:57:02.626Z,99.70
2018-12-30T12:59:32.620Z,99.50
2018-12-30T13:02:04.610Z,99.40
2018-12-30T13:04:37.902Z,99.70
2018-12-30T13:07:07.932Z,99.90
2018-12-30T13:09:40.199Z,99.90
2018-12-30T13:12:10.410Z,99.70
2018-12-30T13:14:40.603Z,99.70
2018-12-30T13:17:10.808Z,99.50
2018-12-30T13:19:41.045Z,99.70
2018-12-30T13:22:12.671Z,99.80
2018-12-30T13:24:46.620Z,99.90
2018-12-30T13:27:18.450Z,99.90
2018-12-30T13:29:48.503Z,99.90
2018-12-30T13:32:19.150Z,99.90
2018-12-30T13:34:49.251Z,99.90
2018-12-30T13:37:19.446Z,99.90
2018-12-30T13:39:50.492Z,99.90
2018-12-30T13:42:21.597Z,99.90
2018-12-30T13:44:51.810Z,99.90
2018-12-30T13:47:21.873Z,99.90
2018-12-30T13:49:52.010Z,99.90
2018-12-30T13:52:28.947Z,99.90
2018-12-30T13:54:59.919Z,99.90
2018-12-30T13:57:30.175Z,99.90
2018-12-30T14:00:00.433Z,99.90
2018-12-30T14:02:30.550Z,99.90
2018-12-30T14:05:01.869Z,99.90
2018-12-30T14:07:32.156Z,99.90
2018-12-30T14:10:02.652Z,99.90
2018-12-30T14:12:33.890Z,99.90
2018-12-30T14:15:06.481Z,99.90
2018-12-30T14:20:16.772Z,99.90
2018-12-30T14:22:47.099Z,99.90
2018-12-30T14:25:17.219Z,99.90
2018-12-30T14:27:47.839Z,99.90
2018-12-30T14:30:18.485Z,99.90
2018-12-30T14:32:48.626Z,99.90
2018-12-30T14:35:18.771Z,99.90
2018-12-30T14:37:49.030Z,99.90
2018-12-30T14:40:19.079Z,99.90
2018-12-30T14:42:49.271Z,99.90
2018-12-30T14:45:20.475Z,99.90
2018-12-30T14:47:51.781Z,99.90
2018-12-30T14:50:21.941Z,99.90
2018-12-30T14:52:52.060Z,99.90
2018-12-30T14:55:22.191Z,99.90
2018-12-30T14:57:52.366Z,99.90
2018-12-30T15:00:22.535Z,99.90
2018-12-30T15:02:52.756Z,99.90
2018-12-30T15:05:23.050Z,99.90
2018-12-30T15:07:53.182Z,99.90
2018-12-30T15:10:23.293Z,99.90
2018-12-30T15:13:05.541Z,99.90
2018-12-30T15:15:35.734Z,99.90
2018-12-30T15:18:05.879Z,99.90
2018-12-30T15:20:36.140Z,99.90
2018-12-30T15:23:06.341Z,99.90
2018-12-30T15:25:36.492Z,99.90
2018-12-30T15:28:06.769Z,99.90
2018-12-30T15:30:36.797Z,99.90
2018-12-30T15:33:06.980Z,99.90
2018-12-30T15:35:37.074Z,99.90
2018-12-30T15:38:08.503Z,99.90
2018-12-30T15:40:38.603Z,99.90
2018-12-30T15:43:08.742Z,99.90
2018-12-30T15:45:38.862Z,99.90
2018-12-30T15:48:08.964Z,99.90
2018-12-30T15:50:39.053Z,99.90
2018-12-30T15:53:09.112Z,99.90
2018-12-30T15:55:39.222Z,99.90
2018-12-30T15:58:10.700Z,99.90
2018-12-30T16:00:40.748Z,99.90
2018-12-30T16:03:11.006Z,99.90
2018-12-30T16:05:41.104Z,99.90
2018-12-30T16:08:11.431Z,99.90
2018-12-30T16:10:41.590Z,99.90
2018-12-30T16:13:11.850Z,99.90
2018-12-30T16:15:42.109Z,99.90
2018-12-30T16:18:12.412Z,99.90
2018-12-30T16:20:42.607Z,99.90
2018-12-30T16:23:12.647Z,99.90
2018-12-30T16:25:42.848Z,99.90
2018-12-30T16:28:13.221Z,99.90
2018-12-30T16:30:43.462Z,99.90
2018-12-30T16:33:13.944Z,99.90
2018-12-30T16:35:51.198Z,99.90
2018-12-30T16:38:22.663Z,99.90
2018-12-30T16:41:23.269Z,99.90
2018-12-30T16:43:56.216Z,99.90
2018-12-30T16:46:29.218Z,99.90
2018-12-30T16:49:02.603Z,99.90
2018-12-30T16:51:33.147Z,99.90
2018-12-30T16:54:06.846Z,99.90
2018-12-30T16:56:38.906Z,99.90
2018-12-30T16:59:11.450Z,99.90
2018-12-30T17:01:42.164Z,99.90
2018-12-30T17:04:12.629Z,99.90
2018-12-30T17:06:42.842Z,99.90
2018-12-30T17:09:16.067Z,99.90
2018-12-30T17:11:51.705Z,99.90
2018-12-30T17:14:23.722Z,99.90
2018-12-30T17:16:58.792Z,99.90
2018-12-30T17:19:33.214Z,99.90
2018-12-30T17:22:04.225Z,99.90
2018-12-30T17:24:37.212Z,99.90
2018-12-30T17:27:08.365Z,99.90
2018-12-30T17:29:41.160Z,99.90
2018-12-30T17:32:20.765Z,99.90
2018-12-30T17:35:05.184Z,99.90
2018-12-30T17:37:38.445Z,99.90
2018-12-30T17:40:09.307Z,99.90
2018-12-30T17:42:39.738Z,99.90
2018-12-30T17:45:10.327Z,99.90
2018-12-30T17:47:42.993Z,99.90
2018-12-30T17:50:14.130Z,99.90
2018-12-30T17:52:44.905Z,99.90
2018-12-30T17:55:16.885Z,99.90
2018-12-30T17:57:47.015Z,99.90
2018-12-30T18:00:17.349Z,99.90
2018-12-30T18:02:47.581Z,99.90
2018-12-30T18:05:18.366Z,99.90
2018-12-30T18:08:01.721Z,99.90
2018-12-30T18:10:52.146Z,99.90
2018-12-30T18:13:23.553Z,99.90
2018-12-30T18:16:39.712Z,99.90
2018-12-30T18:19:27.396Z,99.90
2018-12-30T18:21:57.703Z,99.90
2018-12-30T18:24:27.837Z,99.90
2018-12-30T18:26:58.735Z,99.90
2018-12-30T18:29:29.303Z,99.90
2018-12-30T18:31:59.718Z,99.90
2018-12-30T18:34:31.650Z,99.90
2018-12-30T18:37:01.727Z,99.90
2018-12-30T18:39:32.530Z,99.90
2018-12-30T18:42:02.662Z,99.90
2018-12-30T18:44:33.095Z,99.90
2018-12-30T18:47:03.162Z,99.90
2018-12-30T18:49:34.641Z,99.90
2018-12-30T18:52:08.845Z,99.90
2018-12-30T18:54:39.082Z,99.90
2018-12-30T18:57:09.145Z,99.90
2018-12-30T18:59:39.281Z,99.90
2018-12-30T19:02:09.422Z,99.90
2018-12-30T19:04:39.668Z,99.90
2018-12-30T19:07:10.184Z,99.90
2018-12-30T19:09:41.429Z,99.90
2018-12-30T19:12:11.823Z,99.90
2018-12-30T19:14:42.286Z,99.90
2018-12-30T19:17:12.901Z,99.90
2018-12-30T19:19:43.112Z,99.90
2018-12-30T19:22:13.295Z,99.90
2018-12-30T19:24:43.382Z,99.90
2018-12-30T19:27:13.445Z,99.90
2018-12-30T19:29:43.754Z,99.90
2018-12-30T19:32:14.011Z,99.90
2018-12-30T19:34:44.085Z,99.90
2018-12-30T19:37:14.254Z,99.90
2018-12-30T19:39:44.404Z,99.90
2018-12-30T19:42:17.747Z,99.90
2018-12-30T19:44:47.925Z,99.90
2018-12-30T19:47:18.088Z,99.90
2018-12-30T19:50:08.645Z,99.90
2018-12-30T19:52:42.426Z,99.90
2018-12-30T19:55:12.733Z,99.90
2018-12-30T19:58:24.231Z,99.90
2018-12-30T20:01:57.928Z,99.90
2018-12-30T20:05:10.655Z,99.90
2018-12-30T20:08:28.466Z,99.90
2018-12-30T20:11:23.390Z,99.90
2018-12-30T20:14:34.132Z,99.90
2018-12-30T20:17:50.612Z,99.90
2018-12-30T20:21:18.591Z,99.90
2018-12-30T20:24:24.636Z,99.90
2018-12-30T20:27:01.580Z,99.90
2018-12-30T20:29:45.858Z,99.90
2018-12-30T20:32:59.101Z,99.90
2018-12-30T20:35:36.806Z,99.90
2018-12-30T20:38:23.399Z,99.90
2018-12-30T20:41:55.955Z,99.90
2018-12-30T20:45:07.056Z,99.90
2018-12-30T20:47:46.659Z,99.90
2018-12-30T20:50:21.221Z,99.90
2018-12-30T20:52:56.182Z,99.90
2018-12-30T20:55:26.461Z,99.90
2018-12-30T20:58:07.646Z,99.90
2018-12-30T21:05:19.265Z,99.90
2018-12-30T21:07:58.446Z,99.90
2018-12-30T21:10:31.405Z,99.90
2018-12-30T21:13:42.255Z,99.90
2018-12-30T21:16:58.742Z,99.90
2018-12-30T21:19:36.542Z,99.90
2018-12-30T21:23:17.399Z,99.90
2018-12-30T21:25:50.552Z,99.90
2018-12-30T21:29:12.546Z,99.90
2018-12-30T21:32:39.816Z,99.90
2018-12-30T21:36:07.995Z,99.90
2018-12-30T21:38:55.717Z,99.90
2018-12-30T21:41:27.581Z,99.90
2018-12-30T21:44:33.986Z,99.90
2018-12-30T21:48:32.591Z,99.90
2018-12-30T21:52:05.759Z,99.90
2018-12-30T21:55:56.713Z,99.90
2018-12-30T21:58:29.742Z,99.90
2018-12-30T22:01:00.931Z,99.90
2018-12-30T22:03:31.091Z,99.90
2018-12-30T22:07:16.219Z,99.90
2018-12-30T22:11:09.878Z,99.90
2018-12-30T22:13:46.315Z,99.90
2018-12-30T22:16:18.121Z,99.90
2018-12-30T22:18:48.830Z,99.90
2018-12-30T22:21:28.643Z,99.90
2018-12-30T22:23:59.455Z,99.90
2018-12-30T22:26:35.924Z,99.90
2018-12-30T22:29:28.271Z,99.90
2018-12-30T22:31:58.965Z,99.90
2018-12-30T22:34:42.288Z,99.90
2018-12-30T22:37:13.968Z,99.90
2018-12-30T22:39:44.144Z,99.90
2018-12-30T22:42:14.419Z,99.90
2018-12-30T22:44:44.718Z,99.90
2018-12-30T22:47:15.180Z,99.90
2018-12-30T22:49:45.445Z,99.90
2018-12-30T22:52:15.592Z,99.90
2018-12-30T22:54:45.567Z,99.90
2018-12-30T22:57:15.898Z,99.90
2018-12-30T22:59:47.826Z,99.90
2018-12-30T23:02:17.977Z,99.90
2018-12-30T23:04:48.415Z,99.90
2018-12-30T23:07:18.599Z,99.90
2018-12-30T23:09:49.023Z,99.90
2018-12-30T23:12:19.895Z,99.90
2018-12-30T23:14:49.958Z,99.90
2018-12-30T23:17:20.124Z,99.90
2018-12-30T23:19:50.499Z,99.90
2018-12-30T23:22:21.032Z,99.90
2018-12-30T23:24:51.253Z,99.90
2018-12-30T23:27:22.388Z,99.90
2018-12-30T23:29:52.597Z,99.90
2018-12-30T23:32:22.679Z,99.90
2018-12-30T23:34:54.585Z,99.90
2018-12-30T23:37:25.738Z,99.90
2018-12-30T23:39:55.958Z,99.90
2018-12-30T23:42:26.082Z,99.90
2018-12-30T23:44:56.447Z,99.90
2018-12-30T23:47:26.580Z,99.90
2018-12-30T23:49:56.724Z,99.90
2018-12-30T23:52:26.979Z,99.90
2018-12-30T23:54:57.019Z,99.90
2018-12-30T23:57:27.059Z,99.90
2018-12-30T23:59:58.854Z,99.90
